ADDS METAR Data INFO
IDs: Format: Raw Decoded Include TAF

Data at: 2134 UTC 15 Dec 2017

KTGI 152058Z AUTO 33015KT 10SM OVC021 02/M02 A2987 RMK AO1
KTGI 152038Z AUTO 33013KT 10SM OVC021 02/M02 A2987 RMK AO1
KTGI 152019Z AUTO 33014G19KT 10SM OVC025 02/M01 A2987 RMK AO1
KTGI 151958Z AUTO 34015G18KT 10SM OVC027 03/M01 A2986 RMK AO1
KTGI 151920Z AUTO 33014KT 10SM OVC023 03/00 A2987 RMK AO1
KTGI 151840Z AUTO 01007KT 10SM OVC027 04/00 A2986 RMK AO1
KTGI 151818Z AUTO 36010G14KT 10SM OVC027 04/00 A2988 RMK AO1
KTGI 151800Z AUTO 04010KT 10SM OVC030 05/M01 A2989 RMK AO1
KTGI 151739Z AUTO 04011G16KT 10SM SCT030 BKN040 OVC046 05/M01 A2990 RMK AO1
KTGI 151718Z AUTO 04012G16KT 10SM SCT047 04/M01 A2993 RMK AO1
KTGI 151658Z AUTO 05011KT 10SM CLR 04/M01 A2994 RMK AO1
KTGI 151638Z AUTO 03011G15KT 10SM CLR 04/M02 A2996 RMK AO1
KTGI 151619Z AUTO 04011G16KT 10SM SCT070 04/M02 A2996 RMK AO1
KTGI 151558Z AUTO 04010G15KT 10SM OVC070 03/M02 A3000 RMK AO1
KTGI 151538Z AUTO 04010KT 10SM OVC070 03/M02 A3001 RMK AO1
KTGI 151519Z AUTO 04011G16KT 10SM OVC070 03/M02 A3003 RMK AO1
KTGI 151438Z AUTO 04010KT 10SM OVC070 02/M03 A3003 RMK AO1
KTGI 151419Z AUTO 05011G16KT 10SM OVC070 02/M03 A3003 RMK AO1
KTGI 151358Z AUTO 05011KT 10SM OVC070 02/M03 A3004 RMK AO1
KTGI 151338Z AUTO 05011KT 10SM OVC070 01/M04 A3005 RMK AO1
KTGI 151318Z AUTO 04010G14KT 10SM OVC070 01/M05 A3006 RMK AO1
KTGI 151258Z AUTO 04011KT 10SM OVC070 01/M06 A3007 RMK AO1
KTGI 151238Z AUTO 03009KT 10SM SCT047 OVC070 01/M05 A3008 RMK AO1
KTGI 151219Z AUTO 04009KT 10SM SCT047 OVC070 01/M05 A3008 RMK AO1
KTGI 151158Z AUTO 04008KT 10SM OVC080 01/M06 A3009 RMK AO1
KTGI 151140Z AUTO 04008KT 10SM OVC080 01/M05 A3009 RMK AO1
KTGI 151118Z AUTO 05008KT 10SM OVC080 01/M06 A3009 RMK AO1
KTGI 151058Z AUTO 04009KT 10SM OVC080 00/M06 A3009 RMK AO1
KTGI 151038Z AUTO 04010KT 10SM OVC080 00/M06 A3009 RMK AO1
KTGI 151019Z AUTO 04007KT 10SM OVC080 00/M07 A3010 RMK AO1
KTGI 150958Z AUTO 03011G15KT 10SM OVC080 01/M07 A3010 RMK AO1
KTGI 150938Z AUTO 02008KT 10SM OVC080 01/M07 A3010 RMK AO1
KTGI 150918Z AUTO 02008KT 10SM OVC080 01/M08 A3010 RMK AO1
KTGI 150859Z AUTO 03012G16KT 10SM BKN080 00/M08 A3011 RMK AO1
KTGI 150839Z AUTO 03013KT 10SM CLR 00/M09 A3011 RMK AO1
KTGI 150759Z AUTO 03010G16KT 10SM CLR 01/M09 A3012 RMK AO1
KTGI 150738Z AUTO 03011KT 10SM CLR 01/M08 A3012 RMK AO1
KTGI 150718Z AUTO 04010G14KT 10SM CLR 01/M07 A3012 RMK AO1
KTGI 150658Z AUTO 04007KT 10SM CLR 01/M07 A3012 RMK AO1
KTGI 150618Z AUTO 04007KT 10SM CLR 01/M07 A3011 RMK AO1
KTGI 150558Z AUTO 04009KT 10SM CLR 01/M08 A3010 RMK AO1
KTGI 150538Z AUTO 03009G14KT 10SM CLR 01/M08 A3011 RMK AO1
KTGI 150518Z AUTO 03012KT 10SM CLR 02/M07 A3011 RMK AO1
KTGI 150458Z AUTO 04009KT 10SM CLR 02/M07 A3011 RMK AO1
KTGI 150438Z AUTO 03009KT 10SM CLR 02/M07 A3012 RMK AO1
KTGI 150418Z AUTO 02008KT 10SM CLR 02/M06 A3012 RMK AO1
KTGI 150358Z AUTO 03011KT 10SM CLR 02/M06 A3011 RMK AO1
KTGI 150338Z AUTO 02007KT 10SM CLR 02/M04 A3010 RMK AO1
KTGI 150318Z AUTO 03009KT 10SM CLR 02/M05 A3009 RMK AO1
KTGI 150238Z AUTO 01011G15KT 10SM CLR 03/M06 A3008 RMK AO1
KTGI 150218Z AUTO 01010KT 10SM CLR 03/M05 A3007 RMK AO1
KTGI 150158Z AUTO 36012KT 10SM CLR 03/M06 A3007 RMK AO1
KTGI 150138Z AUTO 36013KT 10SM CLR 03/M06 A3007 RMK AO1
KTGI 150118Z AUTO 01011G17KT 10SM CLR 03/M06 A3005 RMK AO1
KTGI 150100Z AUTO 01013G18KT 10SM CLR 03/M06 A3004 RMK AO1
KTGI 150018Z AUTO 01013KT 10SM CLR 04/M05 A3003 RMK AO1
KTGI 142358Z AUTO 36014KT 10SM CLR 03/M05 A3002 RMK AO1
KTGI 142318Z AUTO 36013KT 10SM CLR 04/M04 A3001 RMK AO1
KTGI 142258Z AUTO 36012G18KT 10SM CLR 04/M04 A3000 RMK AO1
KTGI 142238Z AUTO 36012KT 10SM CLR 04/M03 A2999 RMK AO1
KTGI 142218Z AUTO 36011KT 10SM CLR 04/M03 A2997 RMK AO1
KTGI 142159Z AUTO 36014KT 10SM CLR 04/M04 A2996 RMK AO1
KTGI 142139Z AUTO 36013KT 10SM CLR 04/M03 A2995 RMK AO1
KTGI 142058Z AUTO 35013KT 10SM CLR 05/M03 A2993 RMK AO1
KTGI 142039Z AUTO 35013G20KT 10SM CLR 06/M03 A2992 RMK AO1
KTGI 141958Z AUTO 34018G22KT 10SM CLR 06/M02 A2989 RMK AO1
KTGI 141938Z AUTO 34021G25KT 10SM CLR 06/M02 A2988 RMK AO1
KTGI 141900Z AUTO 34018G24KT 10SM CLR 07/M01 A2986 RMK AO1
KTGI 141839Z AUTO 34019KT 10SM CLR 07/M01 A2984 RMK AO1
KTGI 141818Z AUTO 34018G23KT 10SM CLR 08/M01 A2983 RMK AO1
KTGI 141759Z AUTO 33019KT 10SM CLR 08/M01 A2982 RMK AO1
KTGI 141738Z AUTO 33018G23KT 10SM CLR 07/M01 A2982 RMK AO1
KTGI 141720Z AUTO 32014KT 10SM CLR 08/M01 A2982 RMK AO1
KTGI 141639Z AUTO 31016G23KT 10SM CLR 08/00 A2981 RMK AO1
KTGI 141618Z AUTO 30021KT 10SM CLR 08/M01 A2980 RMK AO1
KTGI 141558Z AUTO 31015G20KT 10SM SCT075 08/M01 A2980 RMK AO1
KTGI 141538Z AUTO 29016KT 10SM SCT075 08/M01 A2979 RMK AO1
KTGI 141518Z AUTO 29016KT 10SM BKN075 OVC085 08/M01 A2978 RMK AO1
KTGI 141458Z AUTO 28014KT 10SM SCT075 OVC085 07/M01 A2977 RMK AO1
KTGI 141439Z AUTO 27015KT 10SM BKN075 OVC085 07/M01 A2975 RMK AO1
KTGI 141418Z AUTO 28018G22KT 10SM BKN075 OVC085 07/M01 A2973 RMK AO1
KTGI 141358Z AUTO 24021G26KT 10SM OVC080 07/M01 A2970 RMK AO1
KTGI 141339Z AUTO 24020G23KT 10SM OVC080 07/00 A2969 RMK AO1
KTGI 141318Z AUTO 24018G24KT 10SM OVC090 07/00 A2967 RMK AO1
KTGI 141258Z AUTO 23022G28KT 10SM BKN090 07/00 A2965 RMK AO1
KTGI 141238Z AUTO 23025G30KT 10SM SCT090 06/M01 A2963 RMK AO1
KTGI 141218Z AUTO 23025G29KT 10SM BKN090 06/M01 A2962 RMK AO1
KTGI 141159Z AUTO 23023G31KT 10SM SCT080 06/M01 A2962 RMK AO1
KTGI 141139Z AUTO 23024G29KT 10SM BKN080 06/M01 A2961 RMK AO1
KTGI 141118Z AUTO 23024G30KT 10SM SCT080 06/M01 A2960 RMK AO1
KTGI 141058Z AUTO 23025G31KT 10SM CLR 06/M01 A2959 RMK AO1
KTGI 141038Z AUTO 23022G29KT 10SM CLR 06/M01 A2959 RMK AO1
KTGI 141018Z AUTO 23024G29KT 10SM CLR 06/M02 A2958 RMK AO1
KTGI 140958Z AUTO 22022G26KT 10SM CLR 06/M02 A2957 RMK AO1
KTGI 140938Z AUTO 22024G31KT 10SM CLR 06/M02 A2956 RMK AO1